Time;durP1;ratioP1;P1;durP2;ratioP2;P2;SDS_P1;SDS_P2;PMS_P1;PMS_P2;Temp;Humidity;BMP_temperature;BMP_pressure;BME280_temperature;BME280_humidity;BME280_pressure;Samples;Min_cycle;Max_cycle;Signal;HPM_P1;HPM_P2
2023/06/22 00:03:13;;;;;;;13.10;8.70;;;;;;;;;;10544480;28;20066;-70
2023/06/22 00:08:14;;;;;;;15.25;9.93;;;;;;;;;;10544625;28;20004;-70
2023/06/22 00:13:15;;;;;;;16.50;9.80;;;;;;;;;;10508308;28;20352;-70
2023/06/22 00:18:16;;;;;;;18.52;10.35;;;;;;;;;;10542714;28;20054;-70
2023/06/22 00:23:17;;;;;;;21.13;9.13;;;;;;;;;;10543433;28;20062;-70
2023/06/22 00:28:17;;;;;;;15.10;8.50;;;;;;;;;;10536783;28;20431;-70
2023/06/22 00:33:18;;;;;;;14.97;9.30;;;;;;;;;;10536854;28;20263;-70
2023/06/22 00:38:18;;;;;;;14.18;9.98;;;;;;;;;;10543082;28;20020;-70
2023/06/22 00:43:18;;;;;;;17.67;11.32;;;;;;;;;;10543486;28;20050;-70
2023/06/22 00:48:19;;;;;;;15.85;8.32;;;;;;;;;;10542843;28;20020;-70
2023/06/22 00:53:19;;;;;;;11.27;9.00;;;;;;;;;;10543049;28;20019;-70
2023/06/22 00:58:21;;;;;;;11.30;8.67;;;;;;;;;;10542347;28;20008;-70
2023/06/22 01:03:21;;;;;;;14.57;8.13;;;;;;;;;;10526303;28;20101;-70
2023/06/22 01:08:27;;;;;;;12.98;8.98;;;;;;;;;;10542131;28;20387;-70
2023/06/22 01:13:27;;;;;;;17.40;8.65;;;;;;;;;;10542128;28;20277;-70
2023/06/22 01:18:29;;;;;;;15.07;9.00;;;;;;;;;;10541482;28;20047;-70
2023/06/22 01:23:36;;;;;;;17.35;10.52;;;;;;;;;;10523651;28;20103;-70
2023/06/22 01:28:44;;;;;;;13.20;9.50;;;;;;;;;;10541862;28;20024;-70
2023/06/22 01:33:44;;;;;;;;;;;;;;;;;;10541895;28;20359;-70
2023/06/22 01:38:46;;;;;;;16.33;9.85;;;;;;;;;;10540838;28;20018;-70
2023/06/22 01:43:47;;;;;;;23.85;10.95;;;;;;;;;;10540636;28;20020;-70
2023/06/22 01:48:47;;;;;;;20.13;12.05;;;;;;;;;;10541072;28;20310;-70
2023/06/22 01:53:47;;;;;;;14.50;10.00;;;;;;;;;;10540348;28;20079;-70
2023/06/22 01:58:59;;;;;;;13.03;9.47;;;;;;;;;;10514002;28;20020;-70
2023/06/22 02:04:06;;;;;;;14.85;9.82;;;;;;;;;;10539862;28;20016;-70
2023/06/22 02:09:08;;;;;;;22.10;10.80;;;;;;;;;;10540264;28;20016;-70
2023/06/22 02:14:09;;;;;;;13.57;10.55;;;;;;;;;;10521559;28;20020;-70
2023/06/22 02:19:09;;;;;;;19.45;10.93;;;;;;;;;;10540215;28;20020;-70
2023/06/22 02:24:10;;;;;;;15.30;9.75;;;;;;;;;;10539970;28;20579;-70
2023/06/22 02:29:10;;;;;;;15.48;10.65;;;;;;;;;;10540288;28;20024;-70
2023/06/22 02:34:10;;;;;;;14.18;10.93;;;;;;;;;;10538967;28;20023;-73
2023/06/22 02:39:11;;;;;;;21.67;9.77;;;;;;;;;;10538508;28;20175;-70
2023/06/22 02:44:11;;;;;;;16.05;10.90;;;;;;;;;;10515885;28;20020;-70
2023/06/22 02:49:11;;;;;;;22.60;11.50;;;;;;;;;;10530011;28;20191;-70
2023/06/22 02:54:12;;;;;;;16.38;10.35;;;;;;;;;;10539264;28;20022;-70
2023/06/22 02:59:12;;;;;;;16.80;10.90;;;;;;;;;;10538516;28;20294;-70
2023/06/22 03:04:13;;;;;;;16.27;9.82;;;;;;;;;;10538639;28;20020;-70
2023/06/22 03:09:13;;;;;;;21.95;10.93;;;;;;;;;;10538828;28;20023;-70
2023/06/22 03:14:14;;;;;;;18.08;10.35;;;;;;;;;;10538713;28;20028;-70
2023/06/22 03:19:14;;;;;;;18.17;10.95;;;;;;;;;;10537887;28;20210;-70
2023/06/22 03:24:14;;;;;;;15.40;10.90;;;;;;;;;;10538311;28;20215;-70
2023/06/22 03:29:15;;;;;;;19.42;11.27;;;;;;;;;;10538427;28;20016;-69
2023/06/22 03:34:15;;;;;;;15.63;10.05;;;;;;;;;;10538201;28;20350;-70
2023/06/22 03:39:16;;;;;;;16.08;11.38;;;;;;;;;;10538122;28;20024;-70
2023/06/22 03:44:19;;;;;;;19.48;11.50;;;;;;;;;;10537835;28;20294;-72
2023/06/22 03:49:19;;;;;;;16.60;10.65;;;;;;;;;;10532213;28;20452;-70
2023/06/22 03:54:20;;;;;;;21.67;9.98;;;;;;;;;;10525821;28;20092;-70
2023/06/22 03:59:20;;;;;;;19.08;11.23;;;;;;;;;;10543545;28;20035;-70
2023/06/22 04:04:20;;;;;;;20.17;11.05;;;;;;;;;;10544440;28;20047;-70
2023/06/22 04:09:21;;;;;;;21.77;11.83;;;;;;;;;;10516926;28;20317;-69
2023/06/22 04:14:21;;;;;;;26.90;11.23;;;;;;;;;;10535061;28;20214;-69
2023/06/22 04:19:22;;;;;;;23.67;11.80;;;;;;;;;;10520932;28;20078;-69
2023/06/22 04:24:22;;;;;;;23.20;13.77;;;;;;;;;;10534409;28;20099;-69
2023/06/22 04:29:28;;;;;;;31.85;13.70;;;;;;;;;;10537006;28;20036;-70
2023/06/22 04:34:29;;;;;;;21.48;13.18;;;;;;;;;;10539592;28;20345;-69
2023/06/22 04:39:29;;;;;;;20.30;12.85;;;;;;;;;;10540330;28;20054;-69
2023/06/22 04:44:29;;;;;;;20.97;11.10;;;;;;;;;;10534592;28;20027;-70
2023/06/22 04:49:33;;;;;;;23.15;11.80;;;;;;;;;;10517505;28;20020;-71
2023/06/22 04:54:34;;;;;;;16.40;10.85;;;;;;;;;;10523757;28;20077;-72
2023/06/22 04:59:36;;;;;;;18.95;11.57;;;;;;;;;;10524387;28;20081;-71
2023/06/22 05:04:38;;;;;;;21.55;11.07;;;;;;;;;;10523614;28;20023;-71
2023/06/22 05:09:38;;;;;;;27.80;13.57;;;;;;;;;;10542133;28;20012;-71
2023/06/22 05:14:38;;;;;;;19.15;10.68;;;;;;;;;;10538515;28;20035;-71
2023/06/22 05:19:39;;;;;;;17.70;11.57;;;;;;;;;;10537090;28;20359;-69
2023/06/22 05:24:39;;;;;;;24.58;10.50;;;;;;;;;;10538003;28;20360;-68
2023/06/22 05:29:40;;;;;;;22.35;11.65;;;;;;;;;;10540826;28;20085;-73
2023/06/22 05:34:40;;;;;;;21.58;10.63;;;;;;;;;;10522338;28;20137;-73
2023/06/22 05:39:40;;;;;;;19.58;11.27;;;;;;;;;;10522271;28;20302;-73
2023/06/22 05:44:40;;;;;;;16.17;11.00;;;;;;;;;;10539984;28;20020;-73
2023/06/22 05:49:44;;;;;;;17.25;10.95;;;;;;;;;;10540474;28;20028;-73
2023/06/22 05:54:44;;;;;;;17.13;10.80;;;;;;;;;;10539259;28;20050;-73
2023/06/22 05:59:44;;;;;;;20.23;11.15;;;;;;;;;;10536900;28;20315;-73
2023/06/22 06:04:45;;;;;;;16.20;10.53;;;;;;;;;;10511567;28;20043;-72
2023/06/22 06:09:45;;;;;;;15.98;10.30;;;;;;;;;;10534288;28;20294;-73
2023/06/22 06:14:45;;;;;;;20.33;10.05;;;;;;;;;;10538717;28;20027;-73
2023/06/22 06:19:46;;;;;;;23.43;10.07;;;;;;;;;;10540890;28;20209;-74
2023/06/22 06:24:47;;;;;;;18.23;8.63;;;;;;;;;;10540009;28;20051;-74
2023/06/22 06:29:48;;;;;;;10.43;7.70;;;;;;;;;;10488913;28;20364;-71
2023/06/22 06:34:48;;;;;;;17.58;8.07;;;;;;;;;;10471062;28;20276;-72
2023/06/22 06:39:49;;;;;;;11.25;7.75;;;;;;;;;;10486313;28;20295;-72
2023/06/22 06:44:49;;;;;;;14.10;8.18;;;;;;;;;;10471582;28;20334;-71
2023/06/22 06:49:50;;;;;;;14.65;8.20;;;;;;;;;;10471941;28;20039;-72
2023/06/22 06:54:51;;;;;;;14.63;7.70;;;;;;;;;;10468538;28;20091;-72
2023/06/22 06:59:52;;;;;;;16.40;7.85;;;;;;;;;;10473085;28;20035;-72
2023/06/22 07:04:52;;;;;;;14.10;7.45;;;;;;;;;;10470603;28;20199;-72
2023/06/22 07:09:52;;;;;;;13.00;7.53;;;;;;;;;;10484052;28;20192;-72
2023/06/22 07:14:53;;;;;;;14.60;7.93;;;;;;;;;;10533463;28;20229;-72
2023/06/22 07:19:53;;;;;;;13.30;7.25;;;;;;;;;;10535926;28;20051;-72
2023/06/22 07:24:53;;;;;;;20.77;9.20;;;;;;;;;;10495516;28;20121;-72
2023/06/22 07:29:55;;;;;;;18.73;8.50;;;;;;;;;;10539486;28;20028;-73
2023/06/22 07:34:55;;;;;;;14.02;8.80;;;;;;;;;;10513330;28;20032;-71
2023/06/22 07:39:58;;;;;;;13.98;9.10;;;;;;;;;;10492734;28;20030;-72
2023/06/22 07:44:58;;;;;;;21.88;8.98;;;;;;;;;;10544255;28;20028;-72
2023/06/22 07:50:01;;;;;;;13.40;6.93;;;;;;;;;;10525117;28;20020;-72
2023/06/22 07:55:02;;;;;;;8.80;7.05;;;;;;;;;;10538581;28;20067;-72
2023/06/22 08:00:06;;;;;;;15.65;8.20;;;;;;;;;;10521623;28;20030;-72
2023/06/22 08:05:10;;;;;;;15.80;6.80;;;;;;;;;;10542580;28;20020;-73
2023/06/22 08:10:11;;;;;;;18.73;8.07;;;;;;;;;;10535014;28;20031;-72
2023/06/22 08:15:11;;;;;;;12.10;7.40;;;;;;;;;;10540583;28;20041;-72
2023/06/22 08:20:12;;;;;;;14.60;7.07;;;;;;;;;;10541163;28;20035;-73
2023/06/22 08:25:13;;;;;;;13.63;7.97;;;;;;;;;;10525412;28;20103;-73
2023/06/22 08:30:13;;;;;;;12.20;7.60;;;;;;;;;;10543976;28;20022;-72
2023/06/22 08:35:14;;;;;;;13.57;7.97;;;;;;;;;;10542518;28;20023;-72
2023/06/22 08:40:14;;;;;;;12.27;7.32;;;;;;;;;;10543910;28;20046;-73
2023/06/22 08:45:14;;;;;;;12.48;7.80;;;;;;;;;;10543461;28;20042;-72
2023/06/22 08:50:15;;;;;;;13.27;8.82;;;;;;;;;;10542424;28;20081;-72
2023/06/22 08:55:15;;;;;;;14.25;7.75;;;;;;;;;;10524081;28;20241;-72
2023/06/22 09:00:16;;;;;;;12.73;7.45;;;;;;;;;;10522828;28;20027;-72
2023/06/22 09:05:17;;;;;;;14.68;7.10;;;;;;;;;;10539777;28;20276;-72
2023/06/22 09:10:18;;;;;;;10.73;6.20;;;;;;;;;;10538020;28;20035;-72
2023/06/22 09:15:18;;;;;;;11.68;6.85;;;;;;;;;;10512150;28;20027;-72
2023/06/22 09:20:18;;;;;;;15.30;6.75;;;;;;;;;;10538055;28;20036;-71
2023/06/22 09:25:20;;;;;;;9.45;5.80;;;;;;;;;;10538767;28;20040;-73
2023/06/22 09:30:21;;;;;;;13.30;5.43;;;;;;;;;;10540566;28;20027;-72
2023/06/22 09:35:22;;;;;;;8.18;4.90;;;;;;;;;;10542199;28;20307;-71
2023/06/22 09:40:22;;;;;;;6.73;5.07;;;;;;;;;;10522697;28;20325;-72
2023/06/22 09:45:22;;;;;;;9.00;5.07;;;;;;;;;;10540953;28;20023;-72
2023/06/22 09:50:22;;;;;;;7.55;4.20;;;;;;;;;;10540700;28;20019;-72
2023/06/22 09:55:23;;;;;;;7.20;4.35;;;;;;;;;;10540545;28;20030;-71
2023/06/22 10:00:23;;;;;;;8.30;5.15;;;;;;;;;;10540449;28;20024;-72
2023/06/22 10:05:24;;;;;;;10.30;4.90;;;;;;;;;;10540535;28;20039;-72
2023/06/22 10:10:24;;;;;;;12.70;5.47;;;;;;;;;;10539320;28;20225;-72
2023/06/22 10:15:26;;;;;;;14.60;6.20;;;;;;;;;;10539508;28;20046;-74
2023/06/22 10:20:43;;;;;;;9.05;4.70;;;;;;;;;;10521894;28;20035;-73
2023/06/22 10:25:43;;;;;;;6.07;4.68;;;;;;;;;;10521614;28;20310;-73
2023/06/22 10:30:44;;;;;;;5.97;4.40;;;;;;;;;;10521620;28;20028;-73
2023/06/22 10:35:55;;;;;;;16.13;4.47;;;;;;;;;;10539628;28;20318;-73
2023/06/22 10:40:55;;;;;;;9.27;4.18;;;;;;;;;;10521341;28;20024;-73
2023/06/22 10:45:55;;;;;;;6.57;4.30;;;;;;;;;;10539585;28;20306;-73
2023/06/22 10:50:56;;;;;;;7.93;4.80;;;;;;;;;;10524293;28;20020;-73
2023/06/22 10:55:56;;;;;;;6.03;4.97;;;;;;;;;;10538843;28;20020;-73
2023/06/22 11:00:56;;;;;;;11.37;5.97;;;;;;;;;;10526084;28;20020;-73
2023/06/22 11:05:57;;;;;;;13.02;6.30;;;;;;;;;;10547095;28;20214;-73
2023/06/22 11:10:57;;;;;;;10.13;5.13;;;;;;;;;;10529240;28;20020;-73
2023/06/22 11:15:57;;;;;;;9.52;5.50;;;;;;;;;;10547436;28;20019;-73
2023/06/22 11:20:57;;;;;;;10.93;6.57;;;;;;;;;;10546976;28;20047;-73
2023/06/22 11:25:58;;;;;;;7.80;5.70;;;;;;;;;;10535248;28;20293;-73
2023/06/22 11:30:58;;;;;;;7.82;5.47;;;;;;;;;;10546691;28;20297;-73
2023/06/22 11:35:59;;;;;;;8.32;5.97;;;;;;;;;;10546212;28;20019;-73
2023/06/22 11:41:05;;;;;;;8.15;5.72;;;;;;;;;;10546066;28;20073;-73
2023/06/22 11:46:05;;;;;;;7.53;5.83;;;;;;;;;;10545994;28;20048;-73
2023/06/22 11:51:07;;;;;;;10.33;5.80;;;;;;;;;;10544431;28;20020;-73
2023/06/22 11:56:08;;;;;;;6.45;5.53;;;;;;;;;;10533118;28;20027;-73
2023/06/22 12:01:08;;;;;;;10.17;5.77;;;;;;;;;;10545395;28;20180;-73
2023/06/22 12:06:09;;;;;;;9.88;6.57;;;;;;;;;;10545082;28;20024;-73
2023/06/22 12:11:09;;;;;;;8.65;5.63;;;;;;;;;;10525739;28;20016;-73
2023/06/22 12:16:09;;;;;;;8.93;5.82;;;;;;;;;;10526890;28;20271;-72
2023/06/22 12:21:10;;;;;;;9.37;6.57;;;;;;;;;;10543932;28;20075;-72
2023/06/22 12:26:10;;;;;;;17.30;6.87;;;;;;;;;;10544385;28;20301;-73
2023/06/22 12:31:10;;;;;;;12.23;6.47;;;;;;;;;;10543811;28;20020;-73
2023/06/22 12:36:11;;;;;;;12.20;6.90;;;;;;;;;;10525839;28;20041;-73
2023/06/22 12:41:11;;;;;;;18.42;7.82;;;;;;;;;;10526330;28;20035;-73
2023/06/22 12:46:11;;;;;;;19.17;8.23;;;;;;;;;;10543348;28;20298;-73
2023/06/22 12:51:12;;;;;;;18.00;9.07;;;;;;;;;;10525493;28;20222;-73
2023/06/22 12:56:12;;;;;;;17.38;9.23;;;;;;;;;;10543929;28;20056;-73
2023/06/22 13:01:12;;;;;;;17.02;9.23;;;;;;;;;;10525267;28;20031;-74
2023/06/22 13:06:13;;;;;;;13.03;8.83;;;;;;;;;;10524884;28;20038;-73
2023/06/22 13:11:17;;;;;;;16.35;9.23;;;;;;;;;;10524789;28;20016;-73
2023/06/22 13:16:18;;;;;;;18.70;10.35;;;;;;;;;;10524289;28;20061;-74
2023/06/22 13:21:19;;;;;;;17.50;10.63;;;;;;;;;;10542327;28;20051;-74
2023/06/22 13:26:22;;;;;;;14.93;10.35;;;;;;;;;;10541836;28;20035;-74
2023/06/22 13:31:24;;;;;;;14.88;9.50;;;;;;;;;;10541966;28;20213;-74
2023/06/22 13:36:24;;;;;;;13.80;9.50;;;;;;;;;;10523322;28;20069;-72
2023/06/22 13:41:24;;;;;;;17.77;10.25;;;;;;;;;;10540796;28;20043;-75
2023/06/22 13:46:24;;;;;;;11.27;8.37;;;;;;;;;;10522824;28;20042;-72
2023/06/22 13:51:25;;;;;;;15.57;8.38;;;;;;;;;;10541078;28;20262;-72
2023/06/22 13:56:25;;;;;;;13.15;9.35;;;;;;;;;;10541181;28;20179;-72
2023/06/22 14:01:25;;;;;;;16.40;9.13;;;;;;;;;;10521622;28;20024;-72
2023/06/22 14:06:26;;;;;;;18.55;10.48;;;;;;;;;;10539933;28;20273;-72
2023/06/22 14:11:26;;;;;;;17.98;10.45;;;;;;;;;;10540410;28;20019;-72
2023/06/22 14:16:26;;;;;;;17.98;9.88;;;;;;;;;;10540451;28;20036;-72
2023/06/22 14:21:27;;;;;;;21.33;10.75;;;;;;;;;;10513902;28;20258;-72
2023/06/22 14:26:27;;;;;;;18.58;10.52;;;;;;;;;;10521709;28;20024;-72
2023/06/22 14:31:27;;;;;;;23.45;10.68;;;;;;;;;;10539393;28;20016;-72
2023/06/22 14:36:30;;;;;;;19.92;10.73;;;;;;;;;;10519993;28;20321;-72
2023/06/22 14:41:31;;;;;;;15.90;9.88;;;;;;;;;;10540049;28;20114;-72
2023/06/22 14:46:31;;;;;;;19.20;9.60;;;;;;;;;;10521456;28;20460;-73
2023/06/22 14:51:32;;;;;;;19.97;10.93;;;;;;;;;;10512081;28;20112;-74
2023/06/22 14:56:33;;;;;;;14.10;10.35;;;;;;;;;;10515347;28;20133;-74
2023/06/22 15:01:33;;;;;;;15.93;10.70;;;;;;;;;;10539440;28;20175;-74
2023/06/22 15:06:33;;;;;;;20.58;10.60;;;;;;;;;;10537953;28;20016;-73
2023/06/22 15:11:33;;;;;;;20.80;12.43;;;;;;;;;;10538387;28;20057;-72
2023/06/22 15:16:34;;;;;;;19.07;10.40;;;;;;;;;;10539168;28;20187;-73
2023/06/22 15:21:34;;;;;;;24.25;10.70;;;;;;;;;;10538549;28;20028;-73
2023/06/22 15:26:34;;;;;;;20.85;10.25;;;;;;;;;;10538877;28;20309;-73
2023/06/22 15:31:34;;;;;;;20.75;10.43;;;;;;;;;;10538679;28;20091;-73
2023/06/22 15:36:35;;;;;;;15.55;9.60;;;;;;;;;;10538719;28;20375;-73
2023/06/22 15:41:35;;;;;;;19.27;11.40;;;;;;;;;;10538002;28;20353;-74
2023/06/22 15:46:35;;;;;;;20.10;10.63;;;;;;;;;;10542996;28;20028;-73
2023/06/22 15:51:35;;;;;;;18.63;11.52;;;;;;;;;;10546474;28;20020;-74
2023/06/22 15:56:36;;;;;;;16.95;9.50;;;;;;;;;;10545406;28;20034;-73
2023/06/22 16:01:36;;;;;;;21.88;10.38;;;;;;;;;;10545949;28;20015;-74
2023/06/22 16:06:37;;;;;;;23.92;11.70;;;;;;;;;;10545469;28;20024;-74
2023/06/22 16:11:40;;;;;;;29.77;11.47;;;;;;;;;;10513396;28;20024;-73
2023/06/22 16:16:43;;;;;;;22.48;10.90;;;;;;;;;;10527008;28;20088;-73
2023/06/22 16:21:43;;;;;;;19.15;10.90;;;;;;;;;;10544529;28;20039;-74
2023/06/22 16:26:44;;;;;;;16.67;10.20;;;;;;;;;;10544651;28;20106;-73
2023/06/22 16:31:47;;;;;;;18.45;11.82;;;;;;;;;;10543975;28;20024;-74
2023/06/22 16:36:47;;;;;;;24.33;10.55;;;;;;;;;;10544121;28;20202;-73
2023/06/22 16:41:49;;;;;;;21.55;9.95;;;;;;;;;;10525917;28;20016;-73
2023/06/22 16:46:50;;;;;;;20.73;10.75;;;;;;;;;;10525835;28;20043;-74
2023/06/22 16:51:50;;;;;;;22.30;13.43;;;;;;;;;;10543281;28;20087;-73
2023/06/22 16:56:50;;;;;;;18.30;10.63;;;;;;;;;;10542093;28;20512;-73
2023/06/22 17:01:54;;;;;;;21.80;10.37;;;;;;;;;;10541486;28;20320;-72
2023/06/22 17:06:58;;;;;;;27.00;10.50;;;;;;;;;;10542582;28;20043;-73
2023/06/22 17:11:59;;;;;;;24.98;12.57;;;;;;;;;;10542581;28;20023;-72
2023/06/22 17:17:00;;;;;;;24.83;13.25;;;;;;;;;;10542172;28;20179;-73
2023/06/22 17:22:00;;;;;;;31.23;16.67;;;;;;;;;;10540983;28;20134;-73
2023/06/22 17:27:01;;;;;;;25.65;14.57;;;;;;;;;;10541938;28;20027;-73
2023/06/22 17:32:02;;;;;;;30.15;11.98;;;;;;;;;;10541839;28;20031;-73
2023/06/22 17:37:03;;;;;;;21.02;12.63;;;;;;;;;;10541357;28;20054;-73
2023/06/22 17:42:06;;;;;;;23.95;12.88;;;;;;;;;;10541324;28;20020;-73
2023/06/22 17:47:06;;;;;;;23.70;14.95;;;;;;;;;;10522734;28;20077;-73
2023/06/22 17:52:14;;;;;;;23.97;12.47;;;;;;;;;;10540796;28;20306;-72
2023/06/22 17:57:16;;;;;;;22.48;12.23;;;;;;;;;;10540942;28;20582;-73
2023/06/22 18:02:20;;;;;;;25.02;13.20;;;;;;;;;;10540625;28;20345;-74
2023/06/22 18:07:20;;;;;;;25.05;13.95;;;;;;;;;;10540230;28;20210;-74
2023/06/22 18:12:21;;;;;;;29.27;13.73;;;;;;;;;;10540369;28;20095;-73
2023/06/22 18:17:21;;;;;;;30.33;14.10;;;;;;;;;;10540377;28;20302;-73
2023/06/22 18:22:21;;;;;;;23.00;11.67;;;;;;;;;;10540129;28;20620;-73
2023/06/22 18:27:22;;;;;;;24.77;12.75;;;;;;;;;;10539823;28;20254;-74
2023/06/22 18:32:22;;;;;;;24.33;13.75;;;;;;;;;;10539576;28;20027;-73
2023/06/22 18:37:23;;;;;;;20.03;12.60;;;;;;;;;;10539918;28;20032;-73
2023/06/22 18:42:23;;;;;;;20.88;12.57;;;;;;;;;;10527054;28;20046;-73
2023/06/22 18:47:27;;;;;;;19.77;12.27;;;;;;;;;;10539435;28;20525;-73
2023/06/22 18:52:28;;;;;;;21.17;12.18;;;;;;;;;;10539660;28;20026;-73
2023/06/22 18:57:33;;;;;;;20.20;12.18;;;;;;;;;;10539745;28;20482;-73
2023/06/22 19:02:42;;;;;;;20.25;12.57;;;;;;;;;;10538976;28;20023;-72
2023/06/22 19:07:51;;;;;;;17.00;11.75;;;;;;;;;;10521152;28;20023;-72
2023/06/22 19:12:52;;;;;;;17.30;11.73;;;;;;;;;;10521238;28;20012;-73
2023/06/22 19:17:53;;;;;;;21.33;11.95;;;;;;;;;;10520507;28;20077;-73
2023/06/22 19:22:57;;;;;;;19.27;10.52;;;;;;;;;;10545736;28;20044;-73
2023/06/22 19:27:58;;;;;;;18.23;12.23;;;;;;;;;;10546653;28;20355;-72
2023/06/22 19:32:58;;;;;;;18.75;12.32;;;;;;;;;;10546983;28;20038;-73
2023/06/22 19:37:58;;;;;;;19.73;12.47;;;;;;;;;;10546983;28;20081;-73
2023/06/22 19:42:59;;;;;;;22.00;12.50;;;;;;;;;;10546810;28;20036;-74
2023/06/22 19:47:59;;;;;;;22.08;12.63;;;;;;;;;;10537374;28;20035;-72
2023/06/22 19:52:59;;;;;;;17.80;12.32;;;;;;;;;;10541372;28;20028;-72
2023/06/22 19:57:59;;;;;;;21.77;11.95;;;;;;;;;;10545794;28;20024;-73
2023/06/22 20:03:00;;;;;;;25.98;13.68;;;;;;;;;;10545130;28;20027;-72
2023/06/22 20:08:02;;;;;;;18.77;11.88;;;;;;;;;;10545636;28;20023;-72
2023/06/22 20:13:08;;;;;;;20.58;11.20;;;;;;;;;;10544856;28;20262;-72
2023/06/22 20:18:09;;;;;;;21.13;12.30;;;;;;;;;;10526489;28;20038;-72
2023/06/22 20:23:10;;;;;;;19.13;11.63;;;;;;;;;;10544947;28;20338;-73
2023/06/22 20:28:11;;;;;;;19.00;10.80;;;;;;;;;;10526590;28;20024;-72
2023/06/22 20:33:15;;;;;;;22.40;10.93;;;;;;;;;;10543307;28;20016;-73
2023/06/22 20:38:15;;;;;;;15.93;11.45;;;;;;;;;;10553593;28;20020;-72
2023/06/22 20:43:16;;;;;;;14.68;10.18;;;;;;;;;;10525646;28;20028;-73
2023/06/22 20:48:16;;;;;;;20.33;11.18;;;;;;;;;;10543372;28;20306;-73
2023/06/22 20:53:16;;;;;;;18.40;11.35;;;;;;;;;;10543639;28;20012;-73
2023/06/22 20:58:17;;;;;;;23.03;12.33;;;;;;;;;;10540131;28;20243;-72
2023/06/22 21:03:17;;;;;;;21.58;10.90;;;;;;;;;;10541767;28;20008;-73
2023/06/22 21:08:17;;;;;;;14.07;10.00;;;;;;;;;;10543289;28;20038;-73
2023/06/22 21:13:18;;;;;;;16.15;9.52;;;;;;;;;;10542645;28;20027;-73
2023/06/22 21:18:19;;;;;;;23.25;8.88;;;;;;;;;;10546958;28;20061;-72
2023/06/22 21:23:19;;;;;;;17.50;10.63;;;;;;;;;;10542616;28;20388;-73
2023/06/22 21:28:20;;;;;;;18.85;8.57;;;;;;;;;;10542491;28;20020;-73
2023/06/22 21:33:20;;;;;;;14.35;9.27;;;;;;;;;;10542008;28;20094;-73
2023/06/22 21:38:21;;;;;;;13.27;8.60;;;;;;;;;;10541557;28;20027;-73
2023/06/22 21:43:21;;;;;;;15.40;8.90;;;;;;;;;;10541958;28;20023;-72
2023/06/22 21:48:21;;;;;;;14.52;8.50;;;;;;;;;;10541413;28;20288;-72
2023/06/22 21:53:22;;;;;;;10.57;7.80;;;;;;;;;;10539539;28;20328;-73
2023/06/22 21:58:25;;;;;;;23.10;8.70;;;;;;;;;;10511249;28;20051;-72
2023/06/22 22:03:25;;;;;;;17.58;8.40;;;;;;;;;;10540484;28;20030;-72
2023/06/22 22:08:26;;;;;;;21.98;9.73;;;;;;;;;;10540988;28;20027;-72
2023/06/22 22:13:26;;;;;;;16.67;9.00;;;;;;;;;;10524252;28;20023;-72
2023/06/22 22:18:27;;;;;;;14.25;8.95;;;;;;;;;;10536833;28;20047;-72
2023/06/22 22:23:28;;;;;;;12.48;7.47;;;;;;;;;;10540461;28;20063;-72
2023/06/22 22:28:28;;;;;;;13.70;8.85;;;;;;;;;;10540004;28;20314;-72
2023/06/22 22:33:29;;;;;;;15.45;8.68;;;;;;;;;;10540184;28;20211;-72
2023/06/22 22:38:29;;;;;;;16.37;8.67;;;;;;;;;;10539633;28;20020;-72
2023/06/22 22:43:29;;;;;;;18.80;9.68;;;;;;;;;;10539863;28;20043;-72
2023/06/22 22:48:31;;;;;;;17.38;10.45;;;;;;;;;;10539518;28;20077;-72
2023/06/22 22:53:31;;;;;;;12.93;8.90;;;;;;;;;;10539783;28;20032;-73
2023/06/22 22:58:32;;;;;;;17.75;9.85;;;;;;;;;;10547217;28;20359;-73
2023/06/22 23:03:32;;;;;;;14.35;8.70;;;;;;;;;;10548833;28;20020;-72
2023/06/22 23:08:32;;;;;;;20.13;9.67;;;;;;;;;;10547913;28;20023;-73
2023/06/22 23:13:33;;;;;;;19.83;8.47;;;;;;;;;;10529656;28;20016;-73
2023/06/22 23:18:33;;;;;;;16.95;9.13;;;;;;;;;;10547895;28;20022;-73
2023/06/22 23:23:34;;;;;;;19.65;8.73;;;;;;;;;;10546897;28;20067;-73
2023/06/22 23:28:34;;;;;;;16.60;8.45;;;;;;;;;;10528571;28;20358;-73
2023/06/22 23:33:35;;;;;;;17.35;8.48;;;;;;;;;;10507045;28;20086;-73
2023/06/22 23:38:35;;;;;;;14.65;8.63;;;;;;;;;;10546357;28;20302;-73
2023/06/22 23:43:35;;;;;;;14.80;8.80;;;;;;;;;;10546106;28;20209;-73
2023/06/22 23:48:35;;;;;;;15.40;9.68;;;;;;;;;;10546012;28;20031;-73
2023/06/22 23:53:36;;;;;;;16.50;10.38;;;;;;;;;;10545975;28;20030;-73
2023/06/22 23:58:36;;;;;;;14.25;9.32;;;;;;;;;;10545508;28;20050;-73
